Time;durP1;ratioP1;P1;durP2;ratioP2;P2;SDS_P1;SDS_P2;PMS_P1;PMS_P2;Temp;Humidity;BMP_temperature;BMP_pressure;BME280_temperature;BME280_humidity;BME280_pressure;Samples;Min_cycle;Max_cycle;Signal;HPM_P1;HPM_P2
2021/09/05 00:02:10;;;;;;;18.92;10.75;;;;;;;12.92;87.53;94931.30;1608877;88;21264;-60
2021/09/05 00:04:37;;;;;;;15.38;11.73;;;;;;;12.90;87.31;94932.37;1585478;89;21110;-61
2021/09/05 00:07:05;;;;;;;19.02;12.13;;;;;;;12.94;87.45;94937.16;1610426;88;21086;-60
2021/09/05 00:09:32;;;;;;;20.25;12.25;;;;;;;12.98;87.54;94937.77;1591391;89;21059;-60
2021/09/05 00:12:00;;;;;;;17.75;12.03;;;;;;;12.99;87.96;94929.05;1595575;88;21077;-60
2021/09/05 00:14:29;;;;;;;16.15;11.38;;;;;;;13.02;88.14;94936.41;1628164;86;22155;-59
2021/09/05 00:16:55;;;;;;;18.60;11.75;;;;;;;13.01;88.11;94925.81;1606384;88;21154;-61
2021/09/05 00:19:22;;;;;;;18.80;12.35;;;;;;;13.00;88.09;94927.03;1592255;89;21137;-60
2021/09/05 00:21:49;;;;;;;16.60;11.60;;;;;;;13.00;88.22;94929.20;1597167;88;21070;-61
2021/09/05 00:24:15;;;;;;;15.13;11.55;;;;;;;13.02;88.37;94935.62;1584364;90;21138;-60
2021/09/05 00:26:46;;;;;;;15.68;10.30;;;;;;;13.02;88.11;94935.62;1597917;88;21054;-61
2021/09/05 00:29:11;;;;;;;16.85;11.70;;;;;;;13.00;87.87;94930.58;1584630;89;21099;-61
2021/09/05 00:31:38;;;;;;;17.65;11.80;;;;;;;13.01;87.78;94936.86;1606340;88;21479;-60
2021/09/05 00:34:05;;;;;;;15.90;12.25;;;;;;;13.01;87.68;94947.91;1640817;86;21096;-60
2021/09/05 00:36:35;;;;;;;19.77;12.50;;;;;;;13.00;88.00;94941.63;1651059;86;21027;-61
2021/09/05 00:39:06;;;;;;;16.20;11.43;;;;;;;13.03;88.15;94937.16;1604981;88;21070;-60
2021/09/05 00:41:34;;;;;;;18.85;12.00;;;;;;;13.08;88.39;94940.72;1594782;89;21129;-62
2021/09/05 00:44:04;;;;;;;17.40;10.93;;;;;;;13.16;88.17;94935.04;1608660;88;21103;-62
2021/09/05 00:46:34;;;;;;;16.32;10.85;;;;;;;13.18;87.93;94936.73;1582931;89;21098;-61
2021/09/05 00:49:01;;;;;;;16.30;11.50;;;;;;;13.18;87.90;94936.12;1602411;88;21818;-60
2021/09/05 00:51:36;;;;;;;19.82;11.70;;;;;;;13.15;87.51;94942.58;1611276;88;21094;-60
2021/09/05 00:54:07;;;;;;;16.25;10.90;;;;;;;13.11;87.44;94946.70;1616258;88;21532;-59
2021/09/05 00:56:35;;;;;;;16.42;10.82;;;;;;;13.09;87.51;94941.63;1602731;88;21031;-61
2021/09/05 00:59:22;;;;;;;20.25;11.40;;;;;;;13.06;87.52;94944.56;1585401;89;21055;-60
2021/09/05 01:01:42;;;;;;;16.30;11.60;;;;;;;13.00;87.71;94943.01;1590878;88;21213;-60
2021/09/05 01:04:10;;;;;;;16.55;10.43;;;;;;;12.94;87.99;94938.54;1600662;88;21610;-61
2021/09/05 01:06:39;;;;;;;18.57;11.05;;;;;;;12.87;88.06;94942.95;1584786;89;21598;-61
2021/09/05 01:09:08;;;;;;;14.55;10.13;;;;;;;12.81;88.22;94937.27;1595498;88;21150;-61
2021/09/05 01:11:36;;;;;;;17.37;11.43;;;;;;;12.80;88.21;94942.63;1610577;88;21022;-60
2021/09/05 01:14:08;;;;;;;15.53;11.43;;;;;;;12.75;88.27;94949.36;1588284;89;21177;-60
2021/09/05 01:16:41;;;;;;;17.25;10.82;;;;;;;12.70;88.46;94951.34;1595018;89;20987;-59
2021/09/05 01:19:13;;;;;;;21.48;11.83;;;;;;;12.65;88.75;94951.92;1584125;89;21059;-60
2021/09/05 01:21:44;;;;;;;15.43;11.45;;;;;;;12.61;89.04;94958.20;1584636;89;21036;-61
2021/09/05 01:24:30;;;;;;;14.60;10.35;;;;;;;12.62;89.44;94949.47;1596815;87;21070;-62
2021/09/05 01:27:11;;;;;;;21.00;11.68;;;;;;;12.69;89.43;94943.66;1598329;88;21207;-60
2021/09/05 01:29:43;;;;;;;16.42;10.32;;;;;;;12.67;89.07;94947.48;1616610;86;21040;-61
2021/09/05 01:32:17;;;;;;;14.18;10.48;;;;;;;12.68;89.00;94952.41;1615785;86;21074;-61
2021/09/05 01:34:47;;;;;;;14.05;9.93;;;;;;;12.63;88.62;94946.09;1615750;87;21118;-60
2021/09/05 01:37:21;;;;;;;14.47;10.78;;;;;;;12.60;88.71;94955.28;1603186;86;21045;-60
2021/09/05 01:40:06;;;;;;;15.75;11.38;;;;;;;12.59;88.93;94950.98;1604256;88;21198;-61
2021/09/05 01:42:37;;;;;;;;;;;;;;;12.57;88.64;94956.95;1555509;89;21268;-60
2021/09/05 01:45:14;;;;;;;14.05;10.70;;;;;;;12.56;88.47;94954.03;1581453;89;20163;-60
2021/09/05 01:47:51;;;;;;;16.15;9.75;;;;;;;12.49;88.22;94960.44;1584850;89;21531;-61
2021/09/05 01:50:27;;;;;;;15.25;11.00;;;;;;;12.44;88.10;94965.18;1584572;89;21024;-60
2021/09/05 01:52:56;;;;;;;15.70;10.78;;;;;;;12.37;88.28;94958.57;1535866;89;21202;-59
2021/09/05 01:55:43;;;;;;;17.45;12.07;;;;;;;12.33;88.41;94960.70;1596524;88;21507;-60
2021/09/05 01:58:15;;;;;;;14.55;11.12;;;;;;;12.28;88.46;94959.89;1653715;86;20970;-60
2021/09/05 02:00:46;;;;;;;17.92;11.78;;;;;;;12.25;88.52;94962.80;1612844;88;21030;-61
2021/09/05 02:03:14;;;;;;;14.95;10.65;;;;;;;12.25;88.76;94957.28;1580174;89;21622;-59
2021/09/05 02:05:42;;;;;;;16.87;9.48;;;;;;;12.30;88.83;94951.92;1597421;88;21937;-60
2021/09/05 02:08:28;;;;;;;18.25;10.08;;;;;;;12.30;88.49;94953.94;1587165;89;21007;-61
2021/09/05 02:10:59;;;;;;;17.82;10.43;;;;;;;12.23;88.60;94951.45;1560519;89;21088;-61
2021/09/05 02:13:34;;;;;;;13.22;9.73;;;;;;;12.20;88.42;94953.12;1600719;88;22189;-61
2021/09/05 02:16:10;;;;;;;16.97;10.05;;;;;;;12.19;88.57;94957.10;1549381;89;21049;-59
2021/09/05 02:18:56;;;;;;;14.28;10.18;;;;;;;12.17;88.60;94959.55;1598925;88;21883;-60
2021/09/05 02:21:39;;;;;;;16.75;10.45;;;;;;;12.13;88.77;94959.52;1589096;90;21456;-61
2021/09/05 02:24:12;;;;;;;16.50;10.72;;;;;;;12.10;89.00;94969.45;1597560;88;26280;-60
2021/09/05 02:26:40;;;;;;;12.45;8.65;;;;;;;12.09;89.40;94965.78;1538793;89;22187;-60
2021/09/05 02:29:25;;;;;;;16.57;10.40;;;;;;;12.14;89.65;94969.32;1601653;88;21087;-61
2021/09/05 02:32:00;;;;;;;14.10;10.00;;;;;;;12.10;89.47;94966.69;1606090;88;22028;-61
2021/09/05 02:34:34;;;;;;;16.00;10.45;;;;;;;12.02;89.56;94972.33;1589616;86;21561;-61
2021/09/05 02:37:20;;;;;;;13.98;9.93;;;;;;;11.96;89.47;94970.59;1604955;88;21077;-60
2021/09/05 02:39:51;;;;;;;11.93;9.23;;;;;;;11.90;89.52;94969.64;1633800;86;21203;-60
2021/09/05 02:42:35;;;;;;;14.10;10.55;;;;;;;11.92;89.58;94966.58;1602624;88;20978;-60
2021/09/05 02:45:19;;;;;;;12.63;9.35;;;;;;;11.90;89.43;94969.02;1589284;89;21976;-61
2021/09/05 02:48:04;;;;;;;16.40;9.38;;;;;;;11.90;89.25;94970.40;1610953;88;21049;-60
2021/09/05 02:50:49;;;;;;;11.68;8.73;;;;;;;11.89;89.10;94970.87;1586966;89;21019;-60
2021/09/05 02:53:36;;;;;;;17.50;9.95;;;;;;;11.88;88.96;94969.33;1597599;88;21002;-60
2021/09/05 02:56:05;;;;;;;12.60;9.75;;;;;;;11.86;89.08;94973.91;1561362;89;21035;-60
2021/09/05 02:58:50;;;;;;;15.55;11.00;;;;;;;11.84;89.00;94974.96;1595313;88;21188;-60
2021/09/05 03:01:22;;;;;;;14.23;9.75;;;;;;;11.83;89.16;94981.70;1636458;86;21029;-61
2021/09/05 03:03:51;;;;;;;13.38;9.13;;;;;;;11.82;89.08;94980.75;1611336;86;21097;-61
2021/09/05 03:06:23;;;;;;;14.40;8.75;;;;;;;11.80;88.99;94972.17;1558109;88;21075;-61
2021/09/05 03:09:04;;;;;;;14.28;9.48;;;;;;;11.78;89.02;94979.53;1627667;86;20975;-60
2021/09/05 03:11:34;;;;;;;11.78;8.83;;;;;;;11.77;89.10;94980.74;1601517;88;21000;-60
2021/09/05 03:14:19;;;;;;;11.63;8.68;;;;;;;11.77;89.17;94985.47;1640332;86;20963;-60
2021/09/05 03:16:56;;;;;;;13.68;8.65;;;;;;;11.75;89.05;94985.91;1592111;88;21034;-60
2021/09/05 03:19:35;;;;;;;12.65;8.98;;;;;;;11.73;89.02;94981.45;1634515;86;21078;-60
2021/09/05 03:22:12;;;;;;;16.73;9.48;;;;;;;11.74;89.18;94991.89;1596785;88;20986;-59
2021/09/05 03:24:47;;;;;;;16.27;10.03;;;;;;;11.71;89.03;94992.16;1582079;89;22597;-61
2021/09/05 03:27:21;;;;;;;14.43;9.03;;;;;;;11.69;89.06;94998.73;1592910;88;21124;-59
2021/09/05 03:29:55;;;;;;;10.50;8.08;;;;;;;11.70;89.05;95000.27;1611704;86;21427;-60
2021/09/05 03:32:26;;;;;;;13.70;9.58;;;;;;;11.71;89.03;94992.79;1608756;88;21034;-61
2021/09/05 03:34:54;;;;;;;12.68;9.28;;;;;;;11.71;88.86;94992.16;1636149;86;21116;-62
2021/09/05 03:37:39;;;;;;;14.98;8.70;;;;;;;11.74;88.82;95006.42;1594926;88;21132;-62
2021/09/05 03:40:25;;;;;;;12.25;8.65;;;;;;;11.76;88.42;94998.50;1589015;89;21539;-60
2021/09/05 03:42:53;;;;;;;13.55;9.35;;;;;;;11.73;88.18;94998.63;1601734;87;21564;-60
2021/09/05 03:45:31;;;;;;;11.53;8.45;;;;;;;11.72;87.96;95001.97;1578021;89;21051;-61
2021/09/05 03:48:16;;;;;;;12.73;8.98;;;;;;;11.73;87.98;95012.40;1636845;86;20995;-60
2021/09/05 03:50:47;;;;;;;17.32;8.85;;;;;;;11.74;87.81;95005.67;1599449;88;21965;-61
2021/09/05 03:53:14;;;;;;;12.23;8.93;;;;;;;11.71;87.80;95005.95;1625814;86;21023;-61
2021/09/05 03:55:41;;;;;;;10.95;8.83;;;;;;;11.73;87.95;95008.27;1627350;87;21026;-60
2021/09/05 03:58:08;;;;;;;12.20;8.43;;;;;;;11.75;87.88;95013.47;1594641;88;20982;-61
2021/09/05 04:00:36;;;;;;;12.95;9.23;;;;;;;11.72;88.02;95008.86;1649284;86;21535;-59
2021/09/05 04:03:04;;;;;;;15.32;9.13;;;;;;;11.73;88.19;95012.40;1601022;88;21165;-60
2021/09/05 04:05:31;;;;;;;20.80;8.88;;;;;;;11.73;88.12;95018.67;1631921;86;21101;-60
2021/09/05 04:10:29;;;;;;;11.50;8.48;;;;;;;11.67;87.74;95030.11;1599982;88;21490;-61
2021/09/05 04:12:57;;;;;;;11.70;8.23;;;;;;;11.60;87.63;95023.48;1571039;89;21144;-59
2021/09/05 04:15:23;;;;;;;12.15;9.03;;;;;;;11.57;87.62;95031.86;1610771;88;21157;-59
2021/09/05 04:17:50;;;;;;;11.73;9.25;;;;;;;11.52;87.64;95037.30;1590781;89;21106;-62
2021/09/05 04:20:17;;;;;;;13.18;9.85;;;;;;;11.49;87.47;95036.81;1614201;88;21152;-60
2021/09/05 04:22:44;;;;;;;12.68;8.15;;;;;;;11.44;87.36;95037.39;1645302;86;21080;-59
2021/09/05 04:25:12;;;;;;;13.53;8.75;;;;;;;11.44;87.50;95031.87;1610674;88;21039;-61
2021/09/05 04:27:39;;;;;;;11.22;8.28;;;;;;;11.42;87.39;95041.20;1634053;86;21182;-61
2021/09/05 04:30:07;;;;;;;11.05;8.48;;;;;;;11.40;87.58;95035.36;1597600;87;21388;-60
2021/09/05 04:32:34;;;;;;;14.80;9.45;;;;;;;11.42;87.53;95038.44;1629048;87;21799;-60
2021/09/05 04:35:01;;;;;;;23.02;9.93;;;;;;;11.41;87.40;95043.79;1606552;88;21018;-60
2021/09/05 04:37:28;;;;;;;16.73;9.70;;;;;;;11.43;87.47;95041.36;1643225;86;21477;-60
2021/09/05 04:39:55;;;;;;;16.70;8.60;;;;;;;11.47;87.81;95043.97;1601138;87;21169;-60
2021/09/05 04:42:22;;;;;;;13.28;9.73;;;;;;;11.55;87.91;95044.66;1576437;89;21121;-60
2021/09/05 04:44:52;;;;;;;17.67;9.90;;;;;;;11.66;87.65;95049.25;1596916;88;21041;-61
2021/09/05 04:47:17;;;;;;;15.03;8.65;;;;;;;11.73;87.18;95048.98;1584593;89;21200;-61
2021/09/05 04:49:44;;;;;;;14.93;9.30;;;;;;;11.80;87.03;95050.73;1608703;88;21045;-59
2021/09/05 04:52:11;;;;;;;12.18;9.30;;;;;;;11.86;86.77;95053.09;1585741;89;39335;-61
2021/09/05 04:54:39;;;;;;;12.93;8.85;;;;;;;11.88;86.54;95057.55;1608775;87;21459;-61
2021/09/05 04:57:06;;;;;;;13.72;9.98;;;;;;;11.89;86.47;95058.46;1627555;86;21087;-59
2021/09/05 04:59:32;;;;;;;14.83;7.97;;;;;;;11.88;86.53;95057.55;1597538;87;21054;-62
2021/09/05 05:01:59;;;;;;;14.65;8.63;;;;;;;11.88;86.65;95047.27;1590189;89;21135;-61
2021/09/05 05:04:26;;;;;;;9.70;8.00;;;;;;;11.93;86.44;95055.59;1609267;88;21580;-60
2021/09/05 05:06:54;;;;;;;10.25;7.90;;;;;;;11.95;86.38;95055.31;1588518;89;21157;-61
2021/09/05 05:09:21;;;;;;;10.72;7.75;;;;;;;11.95;86.15;95062.80;1599738;88;21070;-60
2021/09/05 05:11:48;;;;;;;11.25;8.18;;;;;;;11.97;86.07;95065.28;1592725;89;21003;-60
2021/09/05 05:14:16;;;;;;;9.93;7.87;;;;;;;11.93;85.89;95060.48;1598010;88;21138;-60
2021/09/05 05:16:42;;;;;;;10.08;7.62;;;;;;;11.95;85.84;95068.31;1633579;86;21120;-60
2021/09/05 05:19:09;;;;;;;11.10;7.67;;;;;;;11.95;85.94;95063.59;1599236;88;21597;-60
2021/09/05 05:21:36;;;;;;;9.53;7.92;;;;;;;11.97;86.12;95069.42;1634485;86;21039;-61
2021/09/05 05:24:03;;;;;;;13.32;8.25;;;;;;;12.00;86.31;95069.11;1600623;88;21466;-62
2021/09/05 05:26:30;;;;;;;12.78;8.03;;;;;;;12.03;86.26;95070.97;1587664;89;21122;-60
2021/09/05 05:28:57;;;;;;;11.30;7.70;;;;;;;12.06;86.26;95068.09;1606275;88;21153;-60
2021/09/05 05:31:24;;;;;;;12.25;7.87;;;;;;;12.14;86.17;95076.29;1644704;86;20978;-59
2021/09/05 05:33:50;;;;;;;11.38;7.67;;;;;;;12.18;85.82;95082.44;1618222;88;21549;-62
2021/09/05 05:36:17;;;;;;;13.15;7.97;;;;;;;12.15;85.87;95093.00;1593081;89;21028;-62
2021/09/05 05:38:44;;;;;;;9.03;7.08;;;;;;;12.14;86.02;95091.46;1596952;88;21054;-61
2021/09/05 05:41:10;;;;;;;16.45;8.10;;;;;;;12.13;86.14;95092.68;1634138;86;21582;-63
2021/09/05 05:43:37;;;;;;;13.40;7.87;;;;;;;12.14;86.38;95091.46;1597044;88;21453;-62
2021/09/05 05:46:04;;;;;;;11.15;7.87;;;;;;;12.20;86.63;95096.55;1583990;89;21642;-64
2021/09/05 05:48:30;;;;;;;9.03;6.83;;;;;;;12.27;86.45;95089.39;1603919;88;21123;-60
2021/09/05 05:50:57;;;;;;;12.35;7.60;;;;;;;12.37;86.35;95096.52;1589216;89;21135;-62
2021/09/05 05:53:25;;;;;;;9.45;7.05;;;;;;;12.48;86.08;95098.27;1597506;88;21460;-60
2021/09/05 05:55:51;;;;;;;12.55;7.30;;;;;;;12.61;85.91;95096.20;1591259;89;21223;-61
2021/09/05 05:58:18;;;;;;;11.93;6.80;;;;;;;12.72;85.30;95103.48;1595295;87;21077;-62
2021/09/05 06:00:46;;;;;;;11.18;7.47;;;;;;;12.80;84.81;95113.03;1640959;86;21105;-60
2021/09/05 06:03:13;;;;;;;9.48;6.83;;;;;;;12.86;84.21;95109.86;1599597;88;21235;-60
2021/09/05 06:05:40;;;;;;;11.85;7.60;;;;;;;12.95;83.92;95108.54;1610677;86;21173;-64
2021/09/05 06:08:07;;;;;;;9.68;6.35;;;;;;;13.01;83.39;95113.62;1600127;88;21121;-61
2021/09/05 06:10:36;;;;;;;11.48;7.60;;;;;;;13.10;82.92;95111.67;1596529;89;21590;-60
2021/09/05 06:13:02;;;;;;;21.07;7.15;;;;;;;13.28;82.03;95109.60;1609104;88;21645;-61
2021/09/05 06:15:29;;;;;;;15.10;7.35;;;;;;;13.47;81.34;95112.58;1587860;89;21036;-61
2021/09/05 06:17:57;;;;;;;19.98;7.25;;;;;;;13.59;80.62;95118.61;1609855;88;20999;-61
2021/09/05 06:20:24;;;;;;;11.63;6.33;;;;;;;13.71;80.03;95115.72;1589657;89;21103;-61
2021/09/05 06:22:50;;;;;;;9.80;5.62;;;;;;;13.83;79.79;95118.19;1609218;88;21016;-60
2021/09/05 06:25:17;;;;;;;9.48;6.05;;;;;;;13.98;78.90;95117.13;1586018;89;21014;-61
2021/09/05 06:27:45;;;;;;;14.85;6.22;;;;;;;14.06;77.31;95111.45;1597486;88;21045;-64
2021/09/05 06:30:13;;;;;;;11.97;7.03;;;;;;;14.12;76.34;95116.52;1637915;86;21363;-61
2021/09/05 06:32:40;;;;;;;14.33;7.03;;;;;;;14.19;75.54;95117.63;1605835;88;20995;-61
2021/09/05 06:35:08;;;;;;;9.08;6.10;;;;;;;14.20;75.67;95117.77;1590552;89;21113;-63
2021/09/05 06:37:35;;;;;;;9.60;6.40;;;;;;;14.18;74.31;95116.72;1597672;88;21102;-62
2021/09/05 06:40:02;;;;;;;11.03;5.62;;;;;;;14.21;74.06;95121.33;1579819;89;21221;-61
2021/09/05 06:42:29;;;;;;;12.30;6.03;;;;;;;14.27;74.56;95125.00;1597812;87;21172;-60
2021/09/05 06:44:55;;;;;;;10.18;5.80;;;;;;;14.32;74.46;95127.18;1578242;89;21093;-61
2021/09/05 06:47:22;;;;;;;9.88;6.42;;;;;;;14.35;74.86;95129.77;1604778;88;21055;-61
2021/09/05 06:49:49;;;;;;;9.63;6.53;;;;;;;14.36;74.98;95131.94;1647258;86;21224;-62
2021/09/05 06:52:15;;;;;;;9.20;6.25;;;;;;;14.39;75.25;95136.55;1607693;87;21105;-61
2021/09/05 06:54:42;;;;;;;9.48;6.80;;;;;;;14.43;75.05;95134.54;1583282;89;21159;-62
2021/09/05 06:57:09;;;;;;;10.05;6.03;;;;;;;14.49;75.11;95129.16;1601377;88;20974;-62
2021/09/05 06:59:36;;;;;;;8.23;5.80;;;;;;;14.56;74.75;95139.30;1593638;89;21101;-61
2021/09/05 07:02:04;;;;;;;14.05;6.35;;;;;;;14.62;74.53;95142.98;1597297;88;21565;-61
2021/09/05 07:04:30;;;;;;;9.00;6.67;;;;;;;14.67;74.82;95140.97;1586849;89;21117;-61
2021/09/05 07:06:58;;;;;;;9.90;6.97;;;;;;;14.75;74.47;95149.12;1605245;88;21177;-63
2021/09/05 07:09:26;;;;;;;15.55;5.78;;;;;;;14.86;74.25;95142.50;1587280;89;21165;-61
2021/09/05 07:11:53;;;;;;;8.45;5.97;;;;;;;14.99;73.73;95140.30;1628555;86;21129;-61
2021/09/05 07:14:20;;;;;;;16.85;6.33;;;;;;;15.11;72.24;95139.35;1601075;88;21048;-62
2021/09/05 07:16:47;;;;;;;12.60;5.72;;;;;;;15.23;70.99;95145.93;1584384;89;21001;-61
2021/09/05 07:19:14;;;;;;;12.23;6.08;;;;;;;15.30;69.50;95153.33;1632158;86;21715;-61
2021/09/05 07:21:41;;;;;;;8.85;5.33;;;;;;;15.33;67.85;95157.94;1597885;88;21117;-62
2021/09/05 07:24:08;;;;;;;11.78;4.95;;;;;;;15.40;66.71;95155.45;1651613;86;20994;-60
2021/09/05 07:26:37;;;;;;;11.97;6.55;;;;;;;15.34;66.59;95162.24;1597839;87;21118;-61
2021/09/05 07:29:04;;;;;;;8.83;5.28;;;;;;;15.36;67.65;95163.93;1583133;89;21462;-63
2021/09/05 07:31:32;;;;;;;12.25;6.28;;;;;;;15.46;67.50;95162.67;1604169;88;21104;-61
2021/09/05 07:33:59;;;;;;;17.48;6.15;;;;;;;15.59;66.80;95162.46;1585761;89;21491;-62
2021/09/05 07:36:26;;;;;;;9.78;5.30;;;;;;;15.70;65.71;95173.83;1598457;88;21482;-61
2021/09/05 07:38:53;;;;;;;10.55;5.87;;;;;;;15.81;65.86;95172.07;1586596;89;21035;-61
2021/09/05 07:41:19;;;;;;;9.60;4.37;;;;;;;15.97;65.24;95174.45;1597192;88;21024;-62
2021/09/05 07:43:46;;;;;;;9.60;5.30;;;;;;;16.05;64.51;95170.08;1587970;89;21172;-61
2021/09/05 07:46:13;;;;;;;10.53;5.33;;;;;;;16.09;63.64;95169.27;1597942;88;21069;-62
2021/09/05 07:48:39;;;;;;;12.25;4.97;;;;;;;16.18;63.76;95173.39;1589393;89;21015;-63
2021/09/05 07:51:06;;;;;;;11.18;4.85;;;;;;;16.27;62.55;95176.09;1602858;88;20986;-64
2021/09/05 07:53:33;;;;;;;8.60;4.97;;;;;;;16.27;62.32;95179.51;1590463;89;21058;-63
2021/09/05 07:56:00;;;;;;;8.35;4.97;;;;;;;16.24;62.62;95179.82;1597181;88;21169;-63
2021/09/05 07:58:27;;;;;;;9.30;5.50;;;;;;;16.17;60.91;95184.35;1571278;90;21044;-61
2021/09/05 08:00:55;;;;;;;11.60;5.20;;;;;;;16.07;60.59;95182.86;1614634;88;22308;-62
2021/09/05 08:03:22;;;;;;;7.70;5.35;;;;;;;16.06;60.50;95182.71;1588513;89;21049;-61
2021/09/05 08:05:49;;;;;;;9.65;4.80;;;;;;;16.04;60.44;95186.58;1596203;88;21100;-61
2021/09/05 08:08:18;;;;;;;9.45;4.80;;;;;;;16.04;60.60;95187.97;1654607;86;21983;-61
2021/09/05 08:10:45;;;;;;;8.88;4.78;;;;;;;16.03;60.58;95193.38;1630350;86;21108;-63
2021/09/05 08:13:12;;;;;;;8.68;4.50;;;;;;;16.04;60.85;95189.36;1597029;87;21113;-62
2021/09/05 08:15:38;;;;;;;9.83;5.05;;;;;;;16.03;59.22;95196.15;1580139;89;21694;-62
2021/09/05 08:18:07;;;;;;;10.53;4.72;;;;;;;15.97;59.60;95198.64;1597867;88;21470;-62
2021/09/05 08:20:34;;;;;;;10.32;4.92;;;;;;;15.92;59.86;95204.21;1591036;89;21170;-62
2021/09/05 08:23:01;;;;;;;8.70;4.55;;;;;;;15.91;59.87;95211.00;1603007;88;21080;-64
2021/09/05 08:25:28;;;;;;;6.65;4.30;;;;;;;15.91;59.09;95205.45;1580220;89;21558;-62
2021/09/05 08:27:56;;;;;;;23.15;5.28;;;;;;;15.98;60.23;95213.45;1595592;88;21074;-62
2021/09/05 08:30:23;;;;;;;12.13;5.35;;;;;;;16.01;60.37;95213.90;1584181;89;21094;-61
2021/09/05 08:32:50;;;;;;;7.92;4.78;;;;;;;16.01;60.22;95215.28;1594538;88;21189;-63
2021/09/05 08:35:16;;;;;;;9.15;4.85;;;;;;;15.94;60.34;95217.00;1590286;89;21519;-63
2021/09/05 08:37:43;;;;;;;9.68;4.55;;;;;;;15.86;60.53;95210.27;1597404;88;21089;-62
2021/09/05 08:40:12;;;;;;;10.93;4.60;;;;;;;15.85;61.17;95226.77;1585437;89;21023;-63
2021/09/05 08:42:39;;;;;;;9.40;5.37;;;;;;;15.83;61.31;95220.92;1600475;88;21071;-62
2021/09/05 08:45:07;;;;;;;8.58;4.75;;;;;;;15.85;60.82;95225.38;1642343;86;21162;-62
2021/09/05 08:47:35;;;;;;;7.60;5.50;;;;;;;15.82;60.10;95226.32;1598399;88;21029;-62
2021/09/05 08:50:03;;;;;;;8.75;4.97;;;;;;;15.85;59.89;95221.82;1647328;86;21091;-61
2021/09/05 08:52:30;;;;;;;11.85;4.80;;;;;;;15.96;59.16;95227.03;1602065;88;20994;-62
2021/09/05 08:54:56;;;;;;;5.72;4.55;;;;;;;16.10;58.93;95220.77;1642149;86;21021;-62
2021/09/05 08:57:23;;;;;;;7.92;4.42;;;;;;;16.32;59.02;95218.48;1634936;86;21210;-63
2021/09/05 08:59:50;;;;;;;12.80;5.22;;;;;;;16.51;58.14;95219.95;1601383;88;20974;-62
2021/09/05 09:02:16;;;;;;;8.38;4.67;;;;;;;16.65;58.51;95219.20;1586376;89;21045;-61
2021/09/05 09:04:43;;;;;;;12.18;5.28;;;;;;;16.85;59.10;95218.74;1594406;88;21018;-62
2021/09/05 09:07:14;;;;;;;8.08;4.90;;;;;;;17.09;59.31;95215.92;1628953;86;20984;-62
2021/09/05 09:09:57;;;;;;;11.50;5.30;;;;;;;17.37;59.02;95217.20;1603527;88;21168;-63
2021/09/05 09:12:48;;;;;;;8.40;4.90;;;;;;;17.66;57.80;95211.62;1583078;89;21132;-62
2021/09/05 09:15:27;;;;;;;7.25;5.05;;;;;;;17.86;54.64;95213.84;1602004;88;21045;-63
2021/09/05 09:18:00;;;;;;;11.50;5.90;;;;;;;17.97;53.12;95212.63;1646872;86;21771;-62
2021/09/05 09:20:43;;;;;;;;;;;;;;;18.03;52.49;95216.25;1603002;87;20975;-63
2021/09/05 09:23:20;;;;;;;6.65;4.03;;;;;;;17.95;52.76;95213.74;1582363;89;21184;-62
2021/09/05 09:26:10;;;;;;;7.30;4.80;;;;;;;17.76;52.73;95216.61;1641053;86;21071;-60
2021/09/05 09:28:44;;;;;;;8.28;4.50;;;;;;;17.58;52.75;95221.60;1607148;88;21071;-62
2021/09/05 09:31:25;;;;;;;7.70;5.20;;;;;;;17.47;54.76;95215.87;1634998;86;21458;-63
2021/09/05 09:33:57;;;;;;;8.23;5.03;;;;;;;17.55;54.29;95226.74;1610773;88;21035;-63
2021/09/05 09:36:27;;;;;;;10.45;5.83;;;;;;;17.57;53.59;95221.46;1594269;89;21182;-62
2021/09/05 09:39:02;;;;;;;6.25;4.58;;;;;;;17.52;53.49;95221.53;1594241;89;21082;-63
2021/09/05 09:41:32;;;;;;;10.50;5.80;;;;;;;17.46;52.51;95212.94;1584148;89;21040;-62
2021/09/05 09:44:07;;;;;;;10.08;5.30;;;;;;;17.36;53.02;95220.62;1582165;89;21237;-63
2021/09/05 09:46:37;;;;;;;9.13;6.03;;;;;;;17.26;52.91;95216.98;1594853;88;21530;-62
2021/09/05 09:49:10;;;;;;;7.20;5.62;;;;;;;17.23;52.69;95210.36;1577418;89;21795;-62
2021/09/05 09:51:37;;;;;;;10.72;6.25;;;;;;;17.30;51.47;95217.56;1585271;90;21000;-63
2021/09/05 09:54:06;;;;;;;8.33;5.72;;;;;;;17.37;52.16;95216.59;1594659;88;20990;-63
2021/09/05 09:56:33;;;;;;;9.50;5.87;;;;;;;17.44;52.40;95223.14;1583172;89;21040;-63
2021/09/05 09:59:03;;;;;;;7.17;5.17;;;;;;;17.60;52.07;95221.88;1595837;88;21007;-63
2021/09/05 10:01:32;;;;;;;14.23;6.20;;;;;;;17.70;49.61;95210.80;1645867;86;21157;-63
2021/09/05 10:04:01;;;;;;;8.08;5.22;;;;;;;17.75;50.32;95216.47;1644109;86;21066;-61
2021/09/05 10:06:33;;;;;;;5.92;4.60;;;;;;;17.89;51.38;95219.08;1604046;88;21209;-65
2021/09/05 10:09:06;;;;;;;8.35;5.03;;;;;;;18.03;49.66;95212.72;1590351;89;21110;-63
2021/09/05 10:11:35;;;;;;;13.55;6.90;;;;;;;18.13;49.90;95211.47;1620181;88;21051;-63
2021/09/05 10:14:02;;;;;;;8.93;5.28;;;;;;;18.40;50.38;95217.33;1650256;86;21549;-63
2021/09/05 10:16:30;;;;;;;7.80;5.05;;;;;;;18.51;49.66;95223.84;1612575;88;21454;-62
2021/09/05 10:19:05;;;;;;;6.22;4.30;;;;;;;18.49;49.81;95222.14;1635964;86;21038;-62
2021/09/05 10:21:34;;;;;;;;;;;;;;;18.52;48.45;95230.95;1609853;88;21054;-63
2021/09/05 10:24:00;;;;;;;6.87;5.15;;;;;;;18.78;48.36;95217.05;1594960;89;20139;-62
2021/09/05 10:26:29;;;;;;;7.60;5.10;;;;;;;19.32;48.01;95216.95;1596235;88;21183;-63
2021/09/05 10:28:58;;;;;;;7.75;4.80;;;;;;;19.83;48.65;95233.67;1580774;88;21079;-63
2021/09/05 10:31:30;;;;;;;5.55;4.20;;;;;;;20.51;45.21;95221.84;1653505;86;21045;-63
2021/09/05 10:33:58;;;;;;;5.75;4.10;;;;;;;21.20;44.77;95226.75;1614825;88;28216;-61
2021/09/05 10:36:27;;;;;;;6.42;4.12;;;;;;;21.80;43.94;95217.75;1585695;89;21059;-63
2021/09/05 10:39:08;;;;;;;7.85;4.25;;;;;;;22.22;42.40;95225.23;1605894;88;21878;-63
2021/09/05 10:41:50;;;;;;;5.20;4.37;;;;;;;22.54;40.28;95220.26;1615350;86;20990;-65
2021/09/05 10:44:18;;;;;;;6.60;4.25;;;;;;;22.97;40.88;95214.37;1611929;88;22320;-62
2021/09/05 10:46:51;;;;;;;7.12;4.37;;;;;;;23.58;40.59;95223.27;1634567;86;21097;-61
2021/09/05 10:49:41;;;;;;;9.53;4.30;;;;;;;24.17;40.04;95223.39;1600918;88;20990;-61
2021/09/05 10:52:09;;;;;;;10.93;3.75;;;;;;;24.56;37.33;95225.23;1635972;86;21126;-63
2021/09/05 10:54:48;;;;;;;6.40;3.95;;;;;;;24.75;36.84;95223.24;1593971;89;21011;-61
2021/09/05 10:57:35;;;;;;;6.75;3.80;;;;;;;25.10;36.44;95225.91;1565986;89;21110;-60
2021/09/05 11:00:09;;;;;;;5.65;4.08;;;;;;;25.52;34.75;95220.91;1639267;86;21022;-63
2021/09/05 11:03:08;;;;;;;5.90;3.65;;;;;;;25.97;36.40;95221.16;1604829;88;21256;-64
2021/09/05 11:05:37;;;;;;;10.18;4.28;;;;;;;26.30;34.30;95225.61;1585399;89;21195;-63
2021/09/05 11:08:24;;;;;;;8.75;6.25;;;;;;;26.01;33.52;95223.79;1576324;89;21605;-62
2021/09/05 11:10:52;;;;;;;6.97;3.98;;;;;;;25.88;34.47;95227.84;1590653;89;21082;-62
2021/09/05 11:13:48;;;;;;;4.70;3.42;;;;;;;25.89;35.16;95229.37;1595784;88;20994;-61
2021/09/05 11:16:17;;;;;;;4.85;3.60;;;;;;;26.24;33.65;95223.53;1639227;86;21046;-63
2021/09/05 11:18:48;;;;;;;5.35;3.35;;;;;;;25.88;33.94;95232.08;1643103;86;20958;-61
2021/09/05 11:21:25;;;;;;;6.53;3.87;;;;;;;25.25;34.57;95226.25;1617438;88;21181;-61
2021/09/05 11:23:52;;;;;;;4.58;3.17;;;;;;;25.09;36.05;95219.50;1646259;86;21082;-63
2021/09/05 11:26:19;;;;;;;8.93;3.90;;;;;;;25.32;35.84;95226.41;1638210;86;21029;-62
2021/09/05 11:28:50;;;;;;;4.87;3.75;;;;;;;25.69;33.76;95224.25;1616619;88;21097;-61
2021/09/05 11:31:17;;;;;;;10.85;4.92;;;;;;;25.89;33.98;95218.09;1623514;86;21380;-61
2021/09/05 11:33:45;;;;;;;5.42;3.77;;;;;;;25.75;33.87;95223.52;1597176;87;21597;-62
2021/09/05 11:36:13;;;;;;;9.50;4.87;;;;;;;25.32;33.75;95232.70;1587098;89;21015;-64
2021/09/05 11:38:42;;;;;;;6.30;4.05;;;;;;;24.68;34.53;95226.62;1617381;86;21073;-62
2021/09/05 11:41:09;;;;;;;6.35;4.40;;;;;;;23.90;35.10;95227.17;1607961;88;21203;-62
2021/09/05 11:43:38;;;;;;;5.75;4.20;;;;;;;23.36;36.29;95229.02;1568781;90;21194;-63
2021/09/05 11:46:14;;;;;;;5.65;4.05;;;;;;;22.83;36.84;95230.13;1619404;86;21114;-62